createdAt,value
2018-03-27T00:00:31.636Z,2.00
2018-03-27T00:02:59.141Z,2.10
2018-03-27T00:05:26.650Z,2.10
2018-03-27T00:07:54.159Z,2.10
2018-03-27T00:10:21.665Z,2.10
2018-03-27T00:12:49.168Z,2.10
2018-03-27T00:15:16.682Z,2.10
2018-03-27T00:17:44.216Z,2.10
2018-03-27T00:20:12.147Z,2.10
2018-03-27T00:22:39.650Z,2.10
2018-03-27T00:25:07.156Z,2.10
2018-03-27T00:27:46.432Z,2.10
2018-03-27T00:30:26.112Z,2.10
2018-03-27T00:33:05.506Z,2.10
2018-03-27T00:35:45.088Z,2.10
2018-03-27T00:38:24.423Z,2.10
2018-03-27T00:40:51.439Z,2.00
2018-03-27T00:43:18.934Z,2.00
2018-03-27T00:45:46.438Z,2.00
2018-03-27T00:48:14.339Z,2.00
2018-03-27T00:50:41.840Z,2.00
2018-03-27T00:53:09.351Z,2.00
2018-03-27T00:55:36.865Z,2.00
2018-03-27T00:58:04.367Z,2.00
2018-03-27T01:00:31.867Z,2.00
2018-03-27T01:02:59.362Z,2.10
2018-03-27T01:05:26.858Z,2.10
2018-03-27T01:07:54.361Z,2.10
2018-03-27T01:10:22.255Z,2.10
2018-03-27T01:12:49.771Z,2.10
2018-03-27T01:15:17.676Z,2.10
2018-03-27T01:17:46.422Z,2.10
2018-03-27T01:20:13.943Z,2.10
2018-03-27T01:22:41.460Z,2.10
2018-03-27T01:25:09.532Z,2.10
2018-03-27T01:27:38.925Z,2.10
2018-03-27T01:30:06.476Z,2.10
2018-03-27T01:32:33.989Z,2.10
2018-03-27T01:35:01.488Z,2.10
2018-03-27T01:37:28.992Z,2.10
2018-03-27T01:39:56.497Z,2.10
2018-03-27T01:42:24.015Z,2.20
2018-03-27T01:44:51.514Z,2.20
2018-03-27T01:47:19.027Z,2.20
2018-03-27T01:49:46.511Z,2.20
2018-03-27T01:52:14.028Z,2.20
2018-03-27T01:54:41.527Z,2.20
2018-03-27T01:57:09.057Z,2.20
2018-03-27T01:59:36.593Z,2.20
2018-03-27T02:02:04.108Z,2.20
2018-03-27T02:04:31.767Z,2.20
2018-03-27T02:06:59.263Z,2.20
2018-03-27T02:09:26.761Z,2.20
2018-03-27T02:12:00.089Z,2.20
2018-03-27T02:14:33.589Z,2.20
2018-03-27T02:17:07.307Z,2.20
2018-03-27T02:19:40.976Z,2.10
2018-03-27T02:22:08.487Z,2.20
2018-03-27T02:24:37.965Z,2.10
2018-03-27T02:27:05.859Z,2.10
2018-03-27T02:29:33.361Z,2.10
2018-03-27T02:32:00.853Z,2.10
2018-03-27T02:34:28.372Z,2.10
2018-03-27T02:36:55.871Z,2.10
2018-03-27T02:39:23.770Z,2.10
2018-03-27T02:41:51.276Z,2.10
2018-03-27T02:44:19.180Z,2.00
2018-03-27T02:46:46.675Z,2.00
2018-03-27T02:49:14.184Z,2.00
2018-03-27T02:51:41.697Z,2.00
2018-03-27T02:54:09.199Z,1.90
2018-03-27T02:56:36.720Z,1.80
2018-03-27T02:59:04.217Z,1.80
2018-03-27T03:01:31.782Z,1.70
2018-03-27T03:03:59.275Z,1.70
2018-03-27T03:06:26.778Z,1.70
2018-03-27T03:08:54.708Z,1.60
2018-03-27T03:11:22.215Z,1.60
2018-03-27T03:13:49.727Z,1.60
2018-03-27T03:16:17.239Z,1.50
2018-03-27T03:18:44.736Z,1.40
2018-03-27T03:21:12.234Z,1.40
2018-03-27T03:23:40.167Z,1.30
2018-03-27T03:26:07.668Z,1.30
2018-03-27T03:28:35.185Z,1.30
2018-03-27T03:31:02.693Z,1.30
2018-03-27T03:33:30.200Z,1.30
2018-03-27T03:35:57.714Z,1.20
2018-03-27T03:38:25.220Z,1.20
2018-03-27T03:40:52.731Z,1.10
2018-03-27T03:43:20.238Z,1.10
2018-03-27T03:45:47.744Z,1.00
2018-03-27T03:48:15.266Z,1.00
2018-03-27T03:50:43.216Z,0.90
2018-03-27T03:53:10.720Z,0.90
2018-03-27T03:55:38.214Z,0.90
2018-03-27T03:58:05.714Z,0.90
2018-03-27T04:00:33.653Z,0.90
2018-03-27T04:03:01.228Z,0.90
2018-03-27T04:05:28.775Z,0.90
2018-03-27T04:07:56.291Z,0.80
2018-03-27T04:10:23.827Z,0.80
2018-03-27T04:12:51.369Z,0.80
2018-03-27T04:15:19.360Z,0.80
2018-03-27T04:17:46.895Z,0.80
2018-03-27T04:20:14.509Z,0.80
2018-03-27T04:22:42.072Z,0.70
2018-03-27T04:25:09.574Z,0.70
2018-03-27T04:27:37.476Z,0.60
2018-03-27T04:30:05.003Z,0.60
2018-03-27T04:32:32.536Z,0.50
2018-03-27T04:35:00.028Z,0.50
2018-03-27T04:37:27.523Z,0.50
2018-03-27T04:39:55.020Z,0.50
2018-03-27T04:42:22.546Z,0.50
2018-03-27T04:44:50.037Z,0.50
2018-03-27T04:47:17.549Z,0.40
2018-03-27T04:49:45.065Z,0.40
2018-03-27T04:52:12.936Z,0.20
2018-03-27T04:54:40.441Z,0.20
2018-03-27T04:57:07.970Z,0.20
2018-03-27T04:59:35.555Z,0.10
2018-03-27T05:02:03.051Z,0.00
2018-03-27T05:04:30.954Z,-0.10
2018-03-27T05:06:58.461Z,-0.10
2018-03-27T05:09:25.967Z,-0.10
2018-03-27T05:11:53.471Z,-0.20
2018-03-27T05:14:20.993Z,-0.20
2018-03-27T05:16:48.498Z,-0.20
2018-03-27T05:19:16.009Z,-0.20
2018-03-27T05:21:43.527Z,-0.10
2018-03-27T05:24:11.422Z,-0.10
2018-03-27T05:26:38.926Z,-0.10
2018-03-27T05:29:06.486Z,-0.20
2018-03-27T05:31:33.994Z,-0.20
2018-03-27T05:34:01.523Z,-0.20
2018-03-27T05:36:29.415Z,-0.10
2018-03-27T05:38:56.938Z,-0.10
2018-03-27T05:41:24.836Z,-0.10
2018-03-27T05:43:52.337Z,0.00
2018-03-27T05:46:19.838Z,0.00
2018-03-27T05:48:47.726Z,0.20
2018-03-27T05:51:15.213Z,0.20
2018-03-27T05:53:42.715Z,0.30
2018-03-27T05:56:10.615Z,0.70
2018-03-27T05:58:38.129Z,0.70
2018-03-27T06:01:06.031Z,1.10
2018-03-27T06:03:33.533Z,1.10
2018-03-27T06:06:01.051Z,1.20
2018-03-27T06:08:28.556Z,1.30
2018-03-27T06:10:56.071Z,1.40
2018-03-27T06:13:23.579Z,1.60
2018-03-27T06:15:51.475Z,2.00
2018-03-27T06:18:18.988Z,1.90
2018-03-27T06:20:46.496Z,2.20
2018-03-27T06:23:14.009Z,2.60
2018-03-27T06:25:41.893Z,3.10
2018-03-27T06:28:09.805Z,3.20
2018-03-27T06:30:37.304Z,3.20
2018-03-27T06:33:05.196Z,3.10
2018-03-27T06:35:32.728Z,3.10
2018-03-27T06:38:00.623Z,3.00
2018-03-27T06:40:28.128Z,3.00
2018-03-27T06:42:55.642Z,2.90
2018-03-27T06:45:23.172Z,2.90
2018-03-27T06:47:51.094Z,2.90
2018-03-27T06:50:18.594Z,2.90
2018-03-27T06:52:46.575Z,3.00
2018-03-27T06:55:14.139Z,3.00
2018-03-27T06:57:41.656Z,3.10
2018-03-27T07:00:09.196Z,3.30
2018-03-27T07:02:36.700Z,3.60
2018-03-27T07:05:04.265Z,3.60
2018-03-27T07:07:31.823Z,3.70
2018-03-27T07:09:59.342Z,3.70
2018-03-27T07:12:26.931Z,3.70
2018-03-27T07:14:54.929Z,3.80
2018-03-27T07:17:22.478Z,3.80
2018-03-27T07:19:50.375Z,3.90
2018-03-27T07:22:18.023Z,4.00
2018-03-27T07:24:45.593Z,4.00
2018-03-27T07:27:13.184Z,4.00
2018-03-27T07:29:40.691Z,4.00
2018-03-27T07:32:08.292Z,3.90
2018-03-27T07:34:36.016Z,3.80
2018-03-27T07:37:03.539Z,3.80
2018-03-27T07:39:31.435Z,3.80
2018-03-27T07:41:58.947Z,3.80
2018-03-27T07:44:26.439Z,3.80
2018-03-27T07:46:53.937Z,3.90
2018-03-27T07:49:21.450Z,4.00
2018-03-27T07:51:49.341Z,4.10
2018-03-27T07:54:16.855Z,4.10
2018-03-27T07:56:44.342Z,4.20
2018-03-27T07:59:11.867Z,4.40
2018-03-27T08:01:39.361Z,4.60
2018-03-27T08:04:06.855Z,4.90
2018-03-27T08:06:34.356Z,5.10
2018-03-27T08:09:02.256Z,5.60
2018-03-27T08:11:29.786Z,5.60
2018-03-27T08:13:57.670Z,5.70
2018-03-27T08:16:25.162Z,5.70
2018-03-27T08:18:52.659Z,5.80
2018-03-27T08:21:20.563Z,6.00
2018-03-27T08:23:48.042Z,6.00
2018-03-27T08:26:15.532Z,6.40
2018-03-27T08:28:43.431Z,7.40
2018-03-27T08:31:10.927Z,7.40
2018-03-27T08:33:38.436Z,7.70
2018-03-27T08:36:05.931Z,7.80
2018-03-27T08:38:33.410Z,8.20
2018-03-27T08:41:00.913Z,8.60
2018-03-27T08:43:28.451Z,8.80
2018-03-27T08:46:06.156Z,9.20
2018-03-27T08:48:34.067Z,9.40
2018-03-27T08:51:01.581Z,9.40
2018-03-27T08:53:32.365Z,9.80
2018-03-27T08:56:00.700Z,9.70
2018-03-27T08:58:28.198Z,9.50
2018-03-27T09:00:55.687Z,9.60
2018-03-27T09:03:23.195Z,9.70
2018-03-27T09:05:50.690Z,9.60
2018-03-27T09:08:18.191Z,9.90
2018-03-27T09:10:45.679Z,10.20
2018-03-27T09:13:13.188Z,10.50
2018-03-27T09:15:41.093Z,9.90
2018-03-27T09:18:10.447Z,9.90
2018-03-27T09:20:38.358Z,10.20
2018-03-27T09:23:05.863Z,10.30
2018-03-27T09:25:33.403Z,10.60
2018-03-27T09:28:00.899Z,11.00
2018-03-27T09:30:29.778Z,11.00
2018-03-27T09:32:57.663Z,10.80
2018-03-27T09:35:25.187Z,10.80
2018-03-27T09:37:54.931Z,10.70
2018-03-27T09:40:22.430Z,11.00
2018-03-27T09:42:50.572Z,10.80
2018-03-27T09:45:18.076Z,11.10
2018-03-27T09:47:45.559Z,11.20
2018-03-27T09:50:13.451Z,11.30
2018-03-27T09:52:40.943Z,11.30
2018-03-27T09:55:08.453Z,11.30
2018-03-27T09:57:35.984Z,11.30
2018-03-27T10:00:03.470Z,11.40
2018-03-27T10:02:30.979Z,11.60
2018-03-27T10:04:58.479Z,11.30
2018-03-27T10:07:25.990Z,11.10
2018-03-27T10:09:54.625Z,10.90
2018-03-27T10:12:23.193Z,11.00
2018-03-27T10:14:52.145Z,11.50
2018-03-27T10:17:20.934Z,11.70
2018-03-27T10:19:49.826Z,11.40
2018-03-27T10:22:19.276Z,12.20
2018-03-27T10:24:47.307Z,12.20
2018-03-27T10:27:15.673Z,11.60
2018-03-27T10:29:43.168Z,11.50
2018-03-27T10:32:10.658Z,11.20
2018-03-27T10:34:38.171Z,11.20
2018-03-27T10:37:05.663Z,11.50
2018-03-27T10:39:33.167Z,11.70
2018-03-27T10:42:00.659Z,11.20
2018-03-27T10:44:28.573Z,11.30
2018-03-27T10:46:56.071Z,11.30
2018-03-27T10:49:23.997Z,12.00
2018-03-27T10:51:51.519Z,12.00
2018-03-27T10:54:19.042Z,11.80
2018-03-27T10:56:46.560Z,11.50
2018-03-27T10:59:14.059Z,12.20
2018-03-27T11:01:41.579Z,11.90
2018-03-27T11:04:09.078Z,12.10
2018-03-27T11:06:36.582Z,12.00
2018-03-27T11:09:04.082Z,12.10
2018-03-27T11:11:31.599Z,11.70
2018-03-27T11:13:59.095Z,11.80
2018-03-27T11:16:26.645Z,12.00
2018-03-27T11:18:54.148Z,11.40
2018-03-27T11:21:21.656Z,11.60
2018-03-27T11:23:49.162Z,12.00
2018-03-27T11:26:17.058Z,12.10
2018-03-27T11:28:44.569Z,12.10
2018-03-27T11:31:12.463Z,12.40
2018-03-27T11:33:39.967Z,12.40
2018-03-27T11:36:07.480Z,12.80
2018-03-27T11:38:35.040Z,12.80
2018-03-27T11:41:02.561Z,12.20
2018-03-27T11:43:30.051Z,12.80
2018-03-27T11:45:57.569Z,12.60
2018-03-27T11:48:25.150Z,12.30
2018-03-27T11:50:52.608Z,11.80
2018-03-27T11:53:20.496Z,12.50
2018-03-27T11:55:48.003Z,12.40
2018-03-27T11:58:15.503Z,12.30
2018-03-27T12:00:43.019Z,12.60
2018-03-27T12:03:10.531Z,12.10
2018-03-27T12:05:38.080Z,11.70
2018-03-27T12:08:05.584Z,11.60
2018-03-27T12:10:33.084Z,11.20
2018-03-27T12:13:00.979Z,11.20
2018-03-27T12:15:28.488Z,11.20
2018-03-27T12:17:56.375Z,12.00
2018-03-27T12:20:23.887Z,12.00
2018-03-27T12:22:51.378Z,12.10
2018-03-27T12:25:19.277Z,13.10
2018-03-27T12:27:46.802Z,13.10
2018-03-27T12:30:14.689Z,13.20
2018-03-27T12:32:42.179Z,13.20
2018-03-27T12:35:09.693Z,13.70
2018-03-27T12:37:37.208Z,13.70
2018-03-27T12:40:04.767Z,13.10
2018-03-27T12:42:32.319Z,13.50
2018-03-27T12:44:59.823Z,13.20
2018-03-27T12:47:27.720Z,12.70
2018-03-27T12:49:55.224Z,12.70
2018-03-27T12:52:22.717Z,13.00
2018-03-27T12:54:50.264Z,12.90
2018-03-27T12:57:18.600Z,13.30
2018-03-27T12:59:46.112Z,13.40
2018-03-27T13:02:14.073Z,13.50
2018-03-27T13:04:41.608Z,12.90
2018-03-27T13:07:09.504Z,12.70
2018-03-27T13:09:37.068Z,12.70
2018-03-27T13:12:04.572Z,12.80
2018-03-27T13:14:32.073Z,13.30
2018-03-27T13:16:59.564Z,13.60
2018-03-27T13:19:27.083Z,13.70
2018-03-27T13:21:54.639Z,13.90
2018-03-27T13:24:22.192Z,14.00
2018-03-27T13:26:50.138Z,13.00
2018-03-27T13:29:17.632Z,13.00
2018-03-27T13:31:45.131Z,13.00
2018-03-27T13:34:12.635Z,12.80
2018-03-27T13:36:40.551Z,13.00
2018-03-27T13:39:08.068Z,13.00
2018-03-27T13:41:35.559Z,13.30
2018-03-27T13:44:03.050Z,13.50
2018-03-27T13:46:30.572Z,13.60
2018-03-27T13:48:58.106Z,13.10
2018-03-27T13:51:25.611Z,12.90
2018-03-27T13:53:53.128Z,12.80
2018-03-27T13:56:20.623Z,12.70
2018-03-27T13:58:48.138Z,12.50
2018-03-27T14:01:15.648Z,12.70
2018-03-27T14:03:43.159Z,12.70
2018-03-27T14:06:10.664Z,12.70
2018-03-27T14:08:38.174Z,12.50
2018-03-27T14:11:05.694Z,12.60
2018-03-27T14:13:33.598Z,12.70
2018-03-27T14:16:01.092Z,12.70
2018-03-27T14:18:28.604Z,12.50
2018-03-27T14:20:56.107Z,12.40
2018-03-27T14:23:23.616Z,12.50
2018-03-27T14:25:51.140Z,12.30
2018-03-27T14:28:19.046Z,11.80
2018-03-27T14:30:46.623Z,11.80
2018-03-27T14:33:14.119Z,11.40
2018-03-27T14:35:41.620Z,11.10
2018-03-27T14:38:09.155Z,11.00
2018-03-27T14:40:36.627Z,11.00
2018-03-27T14:43:04.120Z,11.00
2018-03-27T14:45:31.616Z,11.00
2018-03-27T14:47:59.524Z,10.80
2018-03-27T14:50:27.077Z,10.80
2018-03-27T14:52:54.594Z,10.60
2018-03-27T14:55:22.505Z,10.50
2018-03-27T14:57:50.022Z,10.50
2018-03-27T15:00:17.913Z,10.40
2018-03-27T15:02:45.431Z,10.40
2018-03-27T15:05:12.971Z,10.40
2018-03-27T15:07:40.463Z,10.30
2018-03-27T15:10:08.393Z,10.30
2018-03-27T15:12:35.947Z,10.30
2018-03-27T15:15:03.467Z,10.30
2018-03-27T15:17:30.966Z,10.20
2018-03-27T15:19:58.480Z,10.20
2018-03-27T15:22:25.994Z,10.20
2018-03-27T15:24:54.641Z,10.10
2018-03-27T15:27:22.213Z,10.10
2018-03-27T15:29:49.716Z,10.20
2018-03-27T15:32:17.639Z,10.20
2018-03-27T15:34:45.135Z,10.20
2018-03-27T15:37:13.042Z,10.30
2018-03-27T15:39:40.554Z,10.40
2018-03-27T15:42:08.059Z,10.40
2018-03-27T15:44:35.569Z,10.30
2018-03-27T15:47:03.106Z,10.30
2018-03-27T15:49:30.608Z,10.40
2018-03-27T15:51:58.506Z,10.30
2018-03-27T15:54:26.023Z,10.30
2018-03-27T15:56:53.931Z,10.30
2018-03-27T15:59:21.457Z,10.40
2018-03-27T16:01:49.362Z,10.30
2018-03-27T16:04:16.895Z,10.30
2018-03-27T16:06:44.447Z,10.30
2018-03-27T16:09:11.978Z,10.20
2018-03-27T16:11:39.479Z,10.20
2018-03-27T16:14:07.051Z,10.10
2018-03-27T16:16:34.656Z,10.10
2018-03-27T16:19:02.620Z,10.00
2018-03-27T16:21:30.560Z,10.00
2018-03-27T16:23:58.047Z,10.00
2018-03-27T16:26:25.539Z,9.90
2018-03-27T16:28:54.097Z,9.90
2018-03-27T16:31:27.047Z,9.90
2018-03-27T16:33:55.284Z,9.90
2018-03-27T16:36:22.774Z,9.90
2018-03-27T16:38:50.344Z,9.80
2018-03-27T16:41:17.832Z,9.80
2018-03-27T16:43:45.730Z,9.80
2018-03-27T16:46:13.226Z,9.80
2018-03-27T16:48:40.720Z,9.70
2018-03-27T16:51:08.614Z,9.70
2018-03-27T16:53:36.102Z,9.70
2018-03-27T16:56:03.648Z,9.70
2018-03-27T16:58:31.115Z,9.70
2018-03-27T17:00:58.661Z,9.70
2018-03-27T17:03:26.160Z,9.60
2018-03-27T17:05:54.092Z,9.60
2018-03-27T17:08:23.607Z,9.60
2018-03-27T17:10:51.111Z,9.60
2018-03-27T17:13:18.805Z,9.60
2018-03-27T17:15:46.351Z,9.70
2018-03-27T17:18:13.860Z,9.70
2018-03-27T17:20:41.535Z,9.60
2018-03-27T17:23:09.181Z,9.70
2018-03-27T17:25:36.792Z,9.60
2018-03-27T17:28:04.441Z,9.60
2018-03-27T17:30:31.992Z,9.50
2018-03-27T17:32:59.498Z,9.50
2018-03-27T17:35:27.018Z,9.50
2018-03-27T17:37:54.513Z,9.40
2018-03-27T17:40:22.015Z,9.30
2018-03-27T17:42:49.976Z,9.20
2018-03-27T17:45:17.894Z,9.20
2018-03-27T17:47:45.408Z,9.20
2018-03-27T17:50:12.953Z,9.20
2018-03-27T17:52:40.854Z,9.10
2018-03-27T17:55:08.352Z,9.10
2018-03-27T17:57:36.350Z,9.00
2018-03-27T18:00:04.487Z,8.80
2018-03-27T18:02:32.040Z,8.80
2018-03-27T18:04:59.571Z,8.70
2018-03-27T18:07:27.072Z,8.60
2018-03-27T18:09:56.594Z,8.30
2018-03-27T18:12:25.562Z,8.30
2018-03-27T18:14:54.814Z,8.20
2018-03-27T18:17:22.562Z,8.20
2018-03-27T18:19:50.452Z,8.10
2018-03-27T18:22:17.942Z,8.00
2018-03-27T18:24:45.497Z,8.00
2018-03-27T18:27:12.991Z,7.90
2018-03-27T18:29:40.906Z,7.80
2018-03-27T18:32:09.645Z,7.80
2018-03-27T18:34:37.193Z,7.70
2018-03-27T18:37:05.106Z,7.60
2018-03-27T18:39:32.596Z,7.60
2018-03-27T18:42:00.104Z,7.50
2018-03-27T18:44:27.611Z,7.50
2018-03-27T18:46:55.101Z,7.40
2018-03-27T18:49:23.042Z,7.30
2018-03-27T18:51:51.829Z,7.30
2018-03-27T18:54:23.052Z,7.30
2018-03-27T18:56:50.666Z,7.30
2018-03-27T18:59:18.188Z,7.30
2018-03-27T19:01:45.684Z,7.30
2018-03-27T19:04:13.194Z,7.20
2018-03-27T19:06:40.682Z,7.30
2018-03-27T19:09:08.804Z,7.20
2018-03-27T19:11:36.311Z,7.20
2018-03-27T19:14:04.212Z,7.20
2018-03-27T19:16:31.843Z,7.20
2018-03-27T19:18:59.368Z,7.20
2018-03-27T19:21:26.889Z,7.10
2018-03-27T19:23:54.392Z,7.10
2018-03-27T19:26:22.799Z,7.10
2018-03-27T19:28:50.798Z,7.00
2018-03-27T19:31:18.283Z,7.10
2018-03-27T19:33:45.862Z,7.00
2018-03-27T19:36:13.363Z,7.00
2018-03-27T19:38:40.872Z,7.00
2018-03-27T19:41:08.362Z,7.00
2018-03-27T19:43:35.879Z,6.90
2018-03-27T19:46:03.387Z,6.90
2018-03-27T19:48:30.907Z,6.90
2018-03-27T19:50:58.427Z,6.90
2018-03-27T19:53:26.908Z,6.90
2018-03-27T19:55:54.419Z,6.90
2018-03-27T19:58:22.331Z,6.80
2018-03-27T20:00:49.860Z,6.80
2018-03-27T20:03:17.369Z,6.80
2018-03-27T20:05:44.864Z,6.70
2018-03-27T20:08:13.879Z,6.70
2018-03-27T20:10:41.381Z,6.70
2018-03-27T20:13:08.908Z,6.70
2018-03-27T20:15:41.704Z,6.70
2018-03-27T20:20:57.244Z,6.70
2018-03-27T20:23:25.147Z,6.60
2018-03-27T20:25:52.655Z,6.60
2018-03-27T20:28:20.192Z,6.60
2018-03-27T20:30:47.738Z,6.60
2018-03-27T20:33:15.229Z,6.60
2018-03-27T20:35:42.744Z,6.60
2018-03-27T20:38:10.289Z,6.60
2018-03-27T20:40:38.712Z,6.60
2018-03-27T20:43:06.223Z,6.50
2018-03-27T20:45:33.720Z,6.60
2018-03-27T20:48:01.780Z,6.60
2018-03-27T20:50:30.426Z,6.60
2018-03-27T20:52:59.028Z,6.60
2018-03-27T20:55:26.531Z,6.60
2018-03-27T20:57:54.039Z,6.60
2018-03-27T21:00:21.542Z,6.60
2018-03-27T21:02:49.040Z,6.60
2018-03-27T21:07:58.619Z,6.60
2018-03-27T21:10:26.128Z,6.60
2018-03-27T21:12:53.738Z,6.60
2018-03-27T21:15:21.184Z,6.60
2018-03-27T21:17:48.671Z,6.60
2018-03-27T21:20:16.253Z,6.50
2018-03-27T21:22:43.752Z,6.50
2018-03-27T21:25:11.261Z,6.50
2018-03-27T21:27:38.840Z,6.50
2018-03-27T21:30:06.817Z,6.50
2018-03-27T21:32:34.391Z,6.50
2018-03-27T21:35:02.294Z,6.50
2018-03-27T21:37:30.000Z,6.50
2018-03-27T21:39:57.701Z,6.40
2018-03-27T21:42:25.222Z,6.40
2018-03-27T21:44:52.951Z,6.40
2018-03-27T21:47:20.508Z,6.40
2018-03-27T21:49:48.119Z,6.40
2018-03-27T21:52:15.607Z,6.40
2018-03-27T21:54:46.452Z,6.40
2018-03-27T21:57:13.987Z,6.30
2018-03-27T21:59:52.694Z,6.40
2018-03-27T22:02:20.764Z,6.30
2018-03-27T22:04:48.328Z,6.30
2018-03-27T22:07:15.860Z,6.30
2018-03-27T22:09:43.382Z,6.40
2018-03-27T22:12:10.891Z,6.30
2018-03-27T22:14:38.664Z,6.30
2018-03-27T22:17:09.790Z,6.30
2018-03-27T22:19:37.303Z,6.30
2018-03-27T22:22:04.835Z,6.30
2018-03-27T22:24:32.332Z,6.30
2018-03-27T22:26:59.870Z,6.40
2018-03-27T22:29:27.401Z,6.40
2018-03-27T22:31:55.560Z,6.40
2018-03-27T22:34:23.072Z,6.40
2018-03-27T22:36:50.599Z,6.40
2018-03-27T22:39:18.112Z,6.40
2018-03-27T22:41:45.619Z,6.40
2018-03-27T22:44:13.273Z,6.40
2018-03-27T22:46:40.958Z,6.40
2018-03-27T22:49:08.613Z,6.40
2018-03-27T22:51:37.778Z,6.40
2018-03-27T22:54:06.426Z,6.40
2018-03-27T22:56:34.324Z,6.40
2018-03-27T22:59:02.102Z,6.50
2018-03-27T23:01:29.916Z,6.40
2018-03-27T23:03:57.441Z,6.50
2018-03-27T23:06:25.207Z,6.50
2018-03-27T23:08:52.743Z,6.50
2018-03-27T23:11:20.264Z,6.50
2018-03-27T23:13:48.165Z,6.50
2018-03-27T23:16:15.875Z,6.50
2018-03-27T23:18:43.409Z,6.50
2018-03-27T23:21:11.063Z,6.50
2018-03-27T23:23:39.687Z,6.50
2018-03-27T23:26:07.230Z,6.50
2018-03-27T23:28:35.300Z,6.60
2018-03-27T23:31:02.820Z,6.60
2018-03-27T23:33:30.344Z,6.60
2018-03-27T23:35:58.245Z,6.60
2018-03-27T23:38:25.815Z,6.60
2018-03-27T23:40:53.359Z,6.60
2018-03-27T23:43:20.864Z,6.60
2018-03-27T23:45:48.351Z,6.60
2018-03-27T23:48:16.252Z,6.60
2018-03-27T23:50:43.743Z,6.60
2018-03-27T23:53:11.285Z,6.60
2018-03-27T23:55:38.760Z,6.60
2018-03-27T23:58:06.276Z,6.60
